Time;durP1;ratioP1;P1;durP2;ratioP2;P2;SDS_P1;SDS_P2;PMS_P1;PMS_P2;Temp;Humidity;BMP_temperature;BMP_pressure;BME280_temperature;BME280_humidity;BME280_pressure;Samples;Min_cycle;Max_cycle;Signal;HPM_P1;HPM_P2
2023/08/22 00:01:44;;;;;;;10.83;9.70;;;22.20;95.30;;;22.17;85.41;98271.00;4939065;29;20603;-72
2023/08/22 00:04:13;;;;;;;17.63;10.03;;;22.20;95.40;;;21.88;87.72;98271.72;4939852;29;20461;-72
2023/08/22 00:06:40;;;;;;;10.97;9.97;;;22.10;95.70;;;21.78;88.79;98265.22;4942538;28;20462;-71
2023/08/22 00:09:08;;;;;;;12.00;10.57;;;22.00;96.00;;;21.71;89.92;98261.13;4936373;28;20465;-71
2023/08/22 00:11:35;;;;;;;12.17;10.00;;;21.90;96.70;;;21.74;89.87;98255.06;4940932;29;20779;-70
2023/08/22 00:14:02;;;;;;;11.20;10.10;;;21.90;96.90;;;21.61;90.72;98253.69;4955152;28;20999;-71
2023/08/22 00:16:30;;;;;;;11.37;10.20;;;21.80;97.10;;;21.60;91.37;98254.81;4950124;28;20475;-71
2023/08/22 00:18:57;;;;;;;11.60;10.50;;;21.70;97.80;;;21.55;91.69;98249.34;4938018;28;20529;-71
2023/08/22 00:21:25;;;;;;;11.07;9.87;;;21.70;97.90;;;21.54;91.26;98244.94;4950169;28;20525;-71
2023/08/22 00:23:53;;;;;;;11.60;10.40;;;21.70;97.80;;;21.51;91.81;98249.06;4940209;29;20468;-71
2023/08/22 00:26:20;;;;;;;12.40;11.20;;;21.60;97.90;;;21.40;92.61;98242.81;4969646;28;20512;-71
2023/08/22 00:28:47;;;;;;;12.80;11.47;;;21.60;98.20;;;21.47;92.56;98242.50;4947832;28;20468;-72
2023/08/22 00:31:14;;;;;;;12.27;10.70;;;21.60;98.60;;;21.39;92.79;98245.84;4943060;29;20458;-70
2023/08/22 00:33:41;;;;;;;12.00;10.80;;;21.60;98.20;;;21.34;93.05;98246.69;4935780;29;20459;-71
2023/08/22 00:36:08;;;;;;;12.13;10.93;;;21.50;98.20;;;21.29;93.48;98239.28;4934714;29;20490;-71
2023/08/22 00:38:37;;;;;;;11.97;10.30;;;21.50;98.80;;;21.38;93.79;98242.25;4948022;29;20998;-71
2023/08/22 00:41:04;;;;;;;12.03;11.00;;;21.40;99.50;;;21.41;93.67;98241.69;4955367;28;20470;-70
2023/08/22 00:43:31;;;;;;;11.37;10.13;;;21.50;99.30;;;21.32;93.90;98244.22;4950449;29;20472;-71
2023/08/22 00:45:59;;;;;;;12.80;11.63;;;21.50;99.60;;;20.97;92.35;98171.84;4943445;29;20450;-71
2023/08/22 00:48:26;;;;;;;13.47;12.17;;;21.50;98.60;;;21.36;92.42;98247.22;4935709;29;20458;-70
2023/08/22 00:50:53;;;;;;;11.47;10.50;;;21.50;98.50;;;21.30;92.65;98240.09;4935373;29;20458;-69
2023/08/22 00:53:20;;;;;;;11.63;10.37;;;21.50;98.60;;;21.23;93.42;98235.72;4942152;29;20454;-71
2023/08/22 00:55:49;;;;;;;12.07;10.97;;;21.40;99.10;;;21.16;94.11;98240.72;4953119;28;20461;-71
2023/08/22 00:58:16;;;;;;;13.77;11.37;;;21.30;99.60;;;21.07;94.64;98232.19;4942559;29;20457;-70
2023/08/22 01:00:44;;;;;;;12.23;11.13;;;21.20;99.90;;;21.22;93.86;98239.59;4945851;28;20552;-71
2023/08/22 01:03:12;;;;;;;13.97;11.27;;;21.20;99.90;;;21.35;92.47;98240.09;4934921;29;20934;-72
2023/08/22 01:05:45;;;;;;;11.53;10.47;;;21.40;99.30;;;21.42;91.58;98231.53;4954042;29;20454;-69
2023/08/22 01:08:20;;;;;;;11.47;10.27;;;21.50;98.30;;;21.36;92.13;98238.97;4948603;28;20481;-71
2023/08/22 01:10:54;;;;;;;11.73;10.63;;;21.50;97.90;;;21.35;92.31;98231.84;4949941;28;20517;-70
2023/08/22 01:13:25;;;;;;;11.57;10.50;;;21.50;98.00;;;21.40;91.97;98229.06;4934842;29;20442;-69
2023/08/22 01:15:54;;;;;;;11.23;10.23;;;21.50;97.90;;;21.35;91.72;98231.84;4950475;28;20962;-69
2023/08/22 01:18:22;;;;;;;12.20;11.10;;;21.50;97.70;;;21.38;91.08;98225.78;4942110;29;20464;-69
2023/08/22 01:20:49;;;;;;;13.43;12.03;;;21.50;97.40;;;21.53;90.51;98227.63;4935105;29;20478;-69
2023/08/22 01:23:18;;;;;;;11.70;10.50;;;21.60;97.40;;;21.49;90.56;98216.38;4947039;29;20465;-71
2023/08/22 01:25:45;;;;;;;11.43;10.23;;;21.50;97.50;;;21.56;90.05;98229.00;4938815;28;20537;-70
2023/08/22 01:28:21;;;;;;;11.90;10.80;;;21.50;97.50;;;21.19;89.15;98167.88;4950119;29;20940;-70
2023/08/22 01:30:55;;;;;;;12.70;10.87;;;21.50;96.90;;;21.55;89.26;98230.94;4945160;29;20448;-70
2023/08/22 01:33:30;;;;;;;11.93;10.83;;;21.50;97.00;;;21.30;90.27;98218.09;4960144;28;20459;-70
2023/08/22 01:35:58;;;;;;;10.73;9.70;;;21.50;97.00;;;21.37;90.51;98230.44;4948092;28;20966;-70
2023/08/22 01:38:30;;;;;;;12.23;11.00;;;21.50;97.00;;;21.29;91.54;98227.47;4940958;28;20716;-70
2023/08/22 01:40:59;;;;;;;11.10;9.53;;;21.40;97.40;;;21.23;91.59;98224.75;4945803;29;20478;-70
2023/08/22 01:43:26;;;;;;;12.00;10.90;;;21.40;97.60;;;21.22;91.65;98225.00;4941049;29;20473;-70
2023/08/22 01:45:53;;;;;;;10.87;9.87;;;21.40;97.50;;;21.21;92.10;98215.13;4958456;28;20477;-72
2023/08/22 01:48:20;;;;;;;10.73;9.83;;;21.40;97.80;;;21.25;91.68;98221.72;4942595;29;20459;-70
2023/08/22 01:50:47;;;;;;;11.53;10.50;;;21.40;97.70;;;21.29;91.25;98221.97;4957589;28;20458;-71
2023/08/22 01:53:14;;;;;;;11.93;10.83;;;21.40;97.50;;;21.25;91.31;98213.47;4967438;28;20500;-71
2023/08/22 01:55:43;;;;;;;10.17;9.27;;;21.40;97.40;;;21.27;90.91;98224.16;4942169;28;20472;-71
2023/08/22 01:58:11;;;;;;;11.13;10.10;;;21.50;97.40;;;21.18;90.98;98222.03;4953538;28;20459;-70
2023/08/22 02:00:39;;;;;;;10.90;9.90;;;21.40;97.00;;;21.11;90.52;98213.25;4952892;29;20532;-70
2023/08/22 02:03:06;;;;;;;11.60;9.67;;;21.40;96.70;;;21.14;91.15;98220.91;4935244;28;20505;-71
2023/08/22 02:05:34;;;;;;;11.43;10.43;;;21.30;97.20;;;21.07;90.97;98220.41;4949549;29;20481;-71
2023/08/22 02:08:01;;;;;;;11.37;10.27;;;21.30;96.90;;;21.11;91.63;98216.00;4942487;28;20461;-70
2023/08/22 02:10:28;;;;;;;10.77;9.70;;;21.30;97.50;;;21.04;91.88;98215.47;4947837;28;20540;-71
2023/08/22 02:12:57;;;;;;;10.70;9.60;;;21.30;97.40;;;20.98;92.80;98211.09;4941991;28;20450;-71
2023/08/22 02:15:24;;;;;;;11.10;9.90;;;21.20;98.00;;;20.95;92.34;98207.00;4934262;29;20515;-69
2023/08/22 02:17:52;;;;;;;10.37;9.23;;;21.20;97.90;;;20.85;92.90;98205.09;4933848;29;20521;-71
2023/08/22 02:20:19;;;;;;;10.97;9.97;;;21.10;97.90;;;20.86;93.74;98203.16;4946203;29;20458;-71
2023/08/22 02:22:46;;;;;;;11.10;10.00;;;21.10;98.60;;;21.01;92.51;98203.13;4954111;28;20454;-71
2023/08/22 02:25:14;;;;;;;11.07;10.03;;;21.20;98.20;;;20.99;92.41;98201.75;4942441;29;20514;-71
2023/08/22 02:27:42;;;;;;;10.77;9.87;;;21.20;98.00;;;20.93;93.20;98210.00;4933887;29;20514;-69
2023/08/22 02:30:11;;;;;;;10.80;9.80;;;21.10;98.50;;;20.97;93.03;98210.28;4948570;29;20457;-70
2023/08/22 02:32:39;;;;;;;11.97;10.77;;;21.10;98.50;;;21.06;91.91;98213.28;4938719;29;20466;-71
2023/08/22 02:35:08;;;;;;;11.40;10.30;;;21.20;97.90;;;21.13;92.22;98222.03;4943766;29;20473;-71
2023/08/22 02:37:35;;;;;;;10.07;9.20;;;21.30;98.10;;;21.16;91.69;98216.00;4938532;29;20478;-70
2023/08/22 02:40:06;;;;;;;12.90;11.80;;;21.30;97.50;;;21.16;91.96;98210.50;4938791;29;20457;-72
2023/08/22 02:42:33;;;;;;;11.43;10.53;;;21.30;97.90;;;21.22;91.14;98219.50;4937922;29;20986;-71
2023/08/22 02:45:00;;;;;;;12.17;10.50;;;21.40;97.60;;;21.30;90.66;98218.94;4949746;28;20443;-71
2023/08/22 02:47:30;;;;;;;10.43;9.37;;;21.40;97.10;;;21.22;90.72;98217.59;4954129;28;20570;-71
2023/08/22 02:49:57;;;;;;;11.40;10.40;;;21.40;96.60;;;21.22;90.50;98217.59;4932547;29;20477;-71
2023/08/22 02:52:24;;;;;;;10.60;9.40;;;21.40;96.80;;;21.19;90.37;98212.69;4938621;29;20454;-71
2023/08/22 02:54:51;;;;;;;11.10;10.00;;;21.40;96.60;;;21.11;91.31;98210.50;4948481;28;20482;-71
2023/08/22 02:57:19;;;;;;;10.97;9.97;;;21.40;96.80;;;21.09;91.65;98201.72;4947907;28;20445;-71
2023/08/22 02:59:46;;;;;;;11.83;10.80;;;21.40;97.00;;;20.99;91.97;98201.75;4945798;28;20540;-70
2023/08/22 03:02:13;;;;;;;11.50;10.47;;;21.30;97.20;;;21.11;91.15;98199.50;4943840;29;20479;-71
2023/08/22 03:04:42;;;;;;;11.33;10.20;;;21.30;97.30;;;21.15;91.02;98203.31;4947533;29;20890;-71
2023/08/22 03:07:09;;;;;;;11.20;10.10;;;21.30;97.10;;;21.03;91.37;98208.34;4934131;28;20539;-70
2023/08/22 03:09:39;;;;;;;11.27;10.27;;;21.30;97.10;;;20.97;91.20;98201.19;4956085;28;20458;-71
2023/08/22 03:12:07;;;;;;;11.50;10.50;;;21.20;97.00;;;20.97;91.32;98198.47;4949512;29;20454;-71
2023/08/22 03:14:34;;;;;;;11.90;10.70;;;21.20;97.10;;;20.93;91.38;98198.22;4944632;29;20787;-71
2023/08/22 03:17:02;;;;;;;12.90;11.63;;;21.20;96.90;;;20.90;91.70;98199.59;4933020;29;20456;-70
2023/08/22 03:19:29;;;;;;;10.10;9.20;;;21.10;97.30;;;20.84;92.66;98188.91;4947888;28;20460;-71
2023/08/22 03:21:57;;;;;;;11.37;10.27;;;21.10;98.00;;;20.85;92.42;98201.53;4932290;29;20534;-70
2023/08/22 03:24:24;;;;;;;11.73;10.70;;;21.00;97.90;;;20.71;93.34;98193.03;4959951;28;20460;-70
2023/08/22 03:26:52;;;;;;;11.80;10.70;;;21.00;97.80;;;20.79;93.24;98186.94;4935887;29;20542;-70
2023/08/22 03:29:19;;;;;;;12.30;11.10;;;21.00;98.40;;;20.78;92.55;98197.13;4955681;28;20455;-71
2023/08/22 03:31:46;;;;;;;11.03;9.83;;;21.00;98.00;;;20.85;91.99;98185.88;4936001;29;20457;-70
2023/08/22 03:34:14;;;;;;;10.83;9.73;;;21.00;97.60;;;20.70;92.50;98183.13;4939245;29;20517;-71
2023/08/22 03:36:41;;;;;;;14.60;10.27;;;21.00;97.70;;;20.75;92.44;98183.13;4932917;29;20696;-69
2023/08/22 03:39:10;;;;;;;11.30;10.20;;;21.00;97.80;;;20.72;93.08;98197.41;4945318;29;20455;-70
2023/08/22 03:41:37;;;;;;;11.10;10.17;;;21.00;97.90;;;20.67;93.41;98192.75;4949784;29;20490;-71
2023/08/22 03:44:05;;;;;;;10.97;10.07;;;20.90;98.30;;;20.61;94.43;98191.94;4940695;29;20870;-71
2023/08/22 03:46:32;;;;;;;13.30;11.27;;;20.90;98.60;;;20.62;95.16;98185.34;4933042;29;20465;-70
2023/08/22 03:48:59;;;;;;;11.60;10.50;;;20.90;99.30;;;20.51;95.11;98190.03;4935657;29;20534;-70
2023/08/22 03:51:26;;;;;;;12.80;11.67;;;20.80;99.00;;;20.55;95.00;98189.47;4942099;29;20451;-70
2023/08/22 03:53:54;;;;;;;11.73;10.60;;;20.80;99.20;;;20.53;94.53;98185.09;4936942;29;20454;-70
2023/08/22 03:56:23;;;;;;;12.00;10.90;;;20.80;98.80;;;20.52;94.35;98182.59;4950919;29;20519;-71
2023/08/22 03:58:50;;;;;;;10.67;9.87;;;20.80;98.80;;;20.48;95.34;98192.50;4952067;28;20798;-70
2023/08/22 04:01:17;;;;;;;10.50;9.50;;;20.70;99.40;;;20.39;95.68;98197.72;4946507;28;20486;-71
2023/08/22 04:03:44;;;;;;;11.07;10.10;;;20.70;99.50;;;20.34;96.28;98197.75;4933052;29;20942;-71
2023/08/22 04:06:11;;;;;;;11.00;10.10;;;20.60;99.90;;;20.55;94.54;98203.19;4934715;29;20856;-70
2023/08/22 04:08:38;;;;;;;11.53;10.47;;;20.60;99.90;;;20.62;93.21;98203.72;4947138;28;20513;-71
2023/08/22 04:11:05;;;;;;;11.50;10.30;;;20.80;98.50;;;20.63;93.29;98189.72;4941926;29;21134;-71
2023/08/22 04:13:34;;;;;;;11.07;10.17;;;20.90;98.20;;;20.62;93.17;98203.72;4938021;28;20521;-70
2023/08/22 04:16:01;;;;;;;10.87;9.80;;;20.90;98.10;;;20.57;93.60;98207.31;4932955;29;20925;-70
2023/08/22 04:18:28;;;;;;;13.57;11.10;;;20.90;98.40;;;20.72;92.28;98202.91;4936047;29;20930;-71
2023/08/22 04:20:55;;;;;;;10.57;9.67;;;20.90;97.80;;;20.35;92.64;98155.50;4964392;28;20858;-71
2023/08/22 04:23:22;;;;;;;11.20;10.20;;;20.90;97.70;;;20.72;92.52;98202.91;4949564;28;20442;-71
2023/08/22 04:25:49;;;;;;;11.10;10.20;;;21.00;97.60;;;20.78;92.15;98210.00;4964816;28;20947;-70
2023/08/22 04:28:17;;;;;;;11.27;10.17;;;21.00;97.50;;;20.80;92.00;98205.94;4954328;29;20465;-71
2023/08/22 04:30:46;;;;;;;10.63;9.53;;;21.00;97.30;;;20.78;92.31;98213.59;4937354;28;21167;-71
2023/08/22 04:33:13;;;;;;;11.27;10.33;;;21.00;97.50;;;20.90;91.69;98210.56;4949715;28;20467;-71
2023/08/22 04:35:41;;;;;;;12.37;10.57;;;21.00;97.50;;;21.05;91.09;98208.88;4950462;28;21015;-71
2023/08/22 04:38:08;;;;;;;11.67;10.47;;;21.10;97.70;;;21.05;89.96;98217.94;4935930;29;20459;-71
2023/08/22 04:40:36;;;;;;;10.60;9.60;;;21.20;96.70;;;21.18;88.75;98212.94;4938012;29;20439;-70
2023/08/22 04:43:03;;;;;;;10.83;9.83;;;21.30;95.90;;;21.15;89.15;98216.25;4934792;29;21050;-70
2023/08/22 04:45:30;;;;;;;10.47;9.47;;;21.30;95.90;;;21.25;88.27;98215.38;4935624;29;20484;-70
2023/08/22 04:47:59;;;;;;;10.33;9.43;;;21.40;95.60;;;21.28;86.86;98212.06;4946360;29;20927;-69
2023/08/22 04:50:26;;;;;;;11.10;10.00;;;21.50;94.90;;;21.08;87.03;98194.59;4941830;28;20456;-71
2023/08/22 04:52:53;;;;;;;10.70;9.77;;;21.50;94.70;;;21.22;87.88;98203.88;4944739;29;20809;-70
2023/08/22 04:55:21;;;;;;;10.77;9.77;;;21.40;95.10;;;21.28;88.27;98214.81;4953079;29;20979;-70
2023/08/22 04:57:48;;;;;;;10.63;9.63;;;21.40;95.70;;;21.19;87.13;98211.84;4949055;29;20502;-70
2023/08/22 05:00:17;;;;;;;10.70;9.80;;;21.40;95.00;;;21.15;87.41;98217.06;4935182;29;20467;-70
2023/08/22 05:02:44;;;;;;;10.80;9.67;;;21.40;95.10;;;21.15;87.35;98199.78;4949169;28;20549;-71
2023/08/22 05:05:13;;;;;;;11.07;9.97;;;21.40;95.30;;;21.44;86.53;98218.34;4947664;29;20942;-71
2023/08/22 05:07:40;;;;;;;11.20;10.20;;;21.50;95.00;;;21.69;84.60;98216.59;4935301;29;20452;-70
2023/08/22 05:10:08;;;;;;;10.77;9.87;;;21.70;94.40;;;21.83;83.65;98217.59;4935007;29;20525;-70
2023/08/22 05:12:35;;;;;;;10.27;9.23;;;21.90;93.90;;;21.92;83.66;98217.84;4935875;29;21008;-70
2023/08/22 05:15:03;;;;;;;10.33;9.40;;;22.10;93.80;;;21.91;82.71;98213.41;4945639;28;20458;-71
2023/08/22 05:17:31;;;;;;;10.60;9.70;;;22.20;93.20;;;21.90;83.16;98214.50;4968663;28;20961;-70
2023/08/22 05:19:58;;;;;;;10.73;9.63;;;22.20;93.20;;;21.89;82.25;98218.38;4944645;28;20546;-71
2023/08/22 05:22:26;;;;;;;11.63;10.60;;;22.20;92.90;;;21.96;82.15;98224.41;4934060;29;20487;-71
2023/08/22 05:24:53;;;;;;;10.47;9.47;;;22.20;93.00;;;21.89;82.57;98218.38;4950210;28;20863;-71
2023/08/22 05:27:20;;;;;;;11.50;10.50;;;22.20;92.90;;;21.92;82.80;98223.31;4949077;29;20465;-70
2023/08/22 05:29:48;;;;;;;10.77;9.80;;;22.20;92.90;;;21.88;82.13;98222.22;4950796;29;20468;-70
2023/08/22 05:32:15;;;;;;;12.17;11.07;;;22.20;92.70;;;21.90;82.56;98223.59;4933683;29;20540;-70
2023/08/22 05:34:43;;;;;;;11.60;10.50;;;22.20;92.80;;;22.00;82.24;98228.22;4934554;29;20463;-70
2023/08/22 05:37:10;;;;;;;11.03;9.50;;;22.30;92.80;;;22.30;80.51;98234.59;4934302;29;20598;-69
2023/08/22 05:39:38;;;;;;;10.10;9.20;;;22.40;92.60;;;22.44;80.02;98228.44;4933546;29;20451;-70
2023/08/22 05:42:06;;;;;;;10.93;9.83;;;22.60;92.50;;;22.53;78.97;98231.41;4933446;29;20545;-71
2023/08/22 05:44:35;;;;;;;10.47;9.50;;;22.80;92.20;;;22.49;79.12;98242.16;4948952;28;20655;-71
2023/08/22 05:47:04;;;;;;;11.17;10.03;;;22.90;91.90;;;22.81;77.53;98235.25;4948853;29;20940;-70
2023/08/22 05:49:31;;;;;;;10.17;9.37;;;23.00;91.70;;;22.34;77.86;98172.34;4947590;29;20892;-71
2023/08/22 05:52:03;;;;;;;10.53;9.53;;;23.10;91.70;;;22.79;77.11;98237.47;4942331;29;20523;-70
2023/08/22 05:54:30;;;;;;;10.03;8.93;;;23.10;91.50;;;22.83;77.04;98234.97;4944193;29;20867;-71
2023/08/22 05:56:58;;;;;;;10.90;9.87;;;23.10;91.50;;;22.83;77.29;98235.81;4937886;29;20502;-71
2023/08/22 05:59:26;;;;;;;10.30;9.30;;;23.10;91.50;;;22.72;77.14;98228.75;4948748;28;20848;-70
2023/08/22 06:01:53;;;;;;;11.13;10.13;;;23.10;91.40;;;22.85;77.62;98230.81;4945856;29;20546;-70
2023/08/22 06:04:21;;;;;;;10.77;9.70;;;23.10;91.50;;;22.69;77.01;98229.34;4951581;29;20544;-71
2023/08/22 06:06:49;;;;;;;10.90;9.97;;;23.00;91.30;;;22.72;77.38;98223.25;4940365;28;20470;-70
2023/08/22 06:09:15;;;;;;;10.50;9.50;;;23.00;91.50;;;22.82;77.74;98231.38;4934125;29;20462;-70
2023/08/22 06:11:43;;;;;;;10.70;9.80;;;23.00;91.50;;;22.72;78.29;98226.00;4933135;29;20458;-71
2023/08/22 06:14:11;;;;;;;12.40;11.17;;;23.00;91.60;;;22.78;78.14;98230.34;4933705;29;20489;-70
2023/08/22 06:16:39;;;;;;;12.23;10.93;;;23.00;91.70;;;22.82;77.95;98227.81;4943387;29;20462;-72
2023/08/22 06:19:06;;;;;;;12.27;11.10;;;23.10;91.70;;;22.84;78.46;98239.38;4936150;29;20522;-71
2023/08/22 06:21:33;;;;;;;11.00;10.10;;;23.00;91.70;;;22.97;77.64;98240.59;4962406;28;20458;-72
2023/08/22 06:24:02;;;;;;;11.73;10.57;;;23.10;91.70;;;23.25;76.96;98236.16;4943424;28;20459;-71
2023/08/22 06:26:29;;;;;;;13.63;11.60;;;23.30;91.50;;;23.36;76.08;98233.31;4936732;29;20463;-71
2023/08/22 06:28:56;;;;;;;13.23;10.47;;;23.60;91.40;;;23.35;76.58;98232.50;4948163;28;20991;-70
2023/08/22 06:31:25;;;;;;;12.10;10.90;;;23.60;91.40;;;23.35;75.95;98232.50;4947363;28;20462;-70
2023/08/22 06:33:52;;;;;;;12.40;11.20;;;23.70;91.30;;;23.37;76.46;98224.75;4936797;29;20541;-70
2023/08/22 06:36:19;;;;;;;11.13;10.03;;;23.60;91.30;;;23.19;77.65;98227.13;4934017;29;20473;-71
2023/08/22 06:38:46;;;;;;;12.33;11.23;;;23.60;91.50;;;23.25;77.71;98227.91;4951508;28;20451;-71
2023/08/22 06:41:16;;;;;;;13.80;12.00;;;23.50;91.60;;;23.18;75.76;98164.03;4937252;29;20456;-70
2023/08/22 06:43:43;;;;;;;12.67;11.47;;;23.70;91.40;;;23.75;75.20;98226.72;4951241;28;20466;-71
2023/08/22 06:46:10;;;;;;;13.73;10.97;;;23.90;91.20;;;24.10;73.32;98227.34;4937932;28;20462;-72
2023/08/22 06:48:39;;;;;;;13.90;12.43;;;24.10;91.00;;;24.28;72.13;98225.69;4950429;29;20578;-71
2023/08/22 06:51:06;;;;;;;17.50;12.97;;;24.30;90.80;;;24.44;71.23;98219.91;4949120;29;20512;-72
2023/08/22 06:53:32;;;;;;;12.87;11.77;;;24.50;90.60;;;24.34;71.99;98220.91;4945206;29;20459;-71
2023/08/22 06:56:01;;;;;;;13.53;12.20;;;24.50;90.60;;;24.24;72.33;98230.16;4946649;28;20485;-71
2023/08/22 06:58:28;;;;;;;13.40;12.10;;;24.50;90.50;;;23.80;73.95;98229.41;4948049;28;20473;-71
2023/08/22 07:00:55;;;;;;;14.17;12.73;;;24.20;90.60;;;24.33;72.77;98219.25;4931890;29;20514;-70
2023/08/22 07:03:22;;;;;;;14.83;13.17;;;24.40;90.70;;;24.60;71.07;98223.22;4933630;29;20870;-70
2023/08/22 07:05:53;;;;;;;13.13;12.03;;;24.70;90.40;;;25.05;69.35;98228.22;4944851;28;20836;-73
2023/08/22 07:08:20;;;;;;;14.73;13.30;;;25.00;90.30;;;25.51;67.80;98231.19;4949320;28;20808;-71
2023/08/22 07:10:47;;;;;;;13.70;12.47;;;25.40;90.00;;;25.38;67.67;98219.00;4933027;29;20460;-72
2023/08/22 07:13:16;;;;;;;21.67;12.73;;;25.50;89.40;;;25.69;66.69;98230.25;4949683;29;20516;-71
2023/08/22 07:15:44;;;;;;;13.60;12.20;;;25.80;89.00;;;26.21;65.64;98218.03;4937343;28;20460;-71
2023/08/22 07:18:11;;;;;;;13.80;12.07;;;26.20;88.60;;;26.71;62.82;98210.69;4933239;29;20459;-71
2023/08/22 07:20:38;;;;;;;13.60;12.33;;;26.70;87.30;;;26.97;62.32;98221.09;4939670;29;20452;-72
2023/08/22 07:23:07;;;;;;;14.60;12.77;;;27.00;86.50;;;27.04;61.90;98212.31;4941191;28;20481;-71
2023/08/22 07:25:34;;;;;;;13.57;12.17;;;27.30;85.90;;;27.32;61.08;98221.22;4941899;29;20465;-70
2023/08/22 07:28:01;;;;;;;13.50;12.10;;;27.30;85.50;;;27.06;60.87;98221.94;4942703;28;20454;-72
2023/08/22 07:30:28;;;;;;;14.47;13.17;;;27.20;85.00;;;26.63;62.15;98223.34;4959941;28;21011;-70
2023/08/22 07:32:55;;;;;;;14.57;13.20;;;26.80;85.20;;;26.76;62.08;98235.47;4948610;28;20485;-70
2023/08/22 07:35:23;;;;;;;15.70;14.33;;;26.70;85.30;;;26.50;62.97;98229.78;4934174;29;20458;-71
2023/08/22 07:37:50;;;;;;;13.93;12.53;;;26.70;85.30;;;26.58;63.37;98220.72;4947840;28;20472;-73
2023/08/22 07:40:18;;;;;;;13.80;12.70;;;26.70;85.80;;;26.63;63.28;98228.09;4932577;29;20466;-72
2023/08/22 07:42:46;;;;;;;15.20;11.57;;;26.80;85.90;;;26.86;62.59;98229.69;4946935;29;20487;-71
2023/08/22 07:45:13;;;;;;;14.40;12.87;;;26.80;85.70;;;26.79;62.76;98234.03;4950455;28;20935;-71
2023/08/22 07:47:40;;;;;;;14.83;11.70;;;26.90;85.50;;;26.59;64.39;98239.78;4966620;28;20536;-70
2023/08/22 07:50:08;;;;;;;13.77;12.60;;;26.70;86.30;;;26.80;63.48;98239.25;4936019;28;20517;-71
2023/08/22 07:52:35;;;;;;;14.93;12.63;;;26.80;86.10;;;27.29;62.08;98238.50;4949101;29;20492;-70
2023/08/22 07:55:03;;;;;;;14.20;12.90;;;27.20;85.80;;;27.14;62.61;98229.47;4936377;29;20752;-69
2023/08/22 07:57:32;;;;;;;13.83;12.43;;;27.30;85.70;;;27.49;61.73;98241.81;4936712;29;20478;-71
2023/08/22 08:00:00;;;;;;;15.60;13.57;;;27.50;85.40;;;27.67;60.86;98237.16;4936411;29;20966;-71
2023/08/22 08:02:29;;;;;;;14.27;12.87;;;27.60;84.80;;;27.84;60.75;98241.94;4950748;28;20842;-70
2023/08/22 08:04:56;;;;;;;15.43;14.00;;;27.80;84.80;;;27.60;59.87;98245.97;4936795;29;20541;-71
2023/08/22 08:07:23;;;;;;;15.60;14.00;;;27.70;83.90;;;27.47;60.99;98244.09;4934871;29;20488;-71
2023/08/22 08:09:51;;;;;;;14.40;13.00;;;27.60;84.30;;;27.64;60.78;98244.16;4936042;29;20463;-71
2023/08/22 08:12:18;;;;;;;15.90;13.30;;;27.60;84.60;;;27.71;60.57;98243.69;4950641;28;20450;-71
2023/08/22 08:14:46;;;;;;;15.50;14.03;;;27.70;84.30;;;27.69;59.84;98246.81;4950857;28;20517;-71
2023/08/22 08:17:16;;;;;;;14.03;12.63;;;27.70;83.70;;;28.02;59.54;98247.50;4935847;29;20470;-71
2023/08/22 08:19:44;;;;;;;16.73;13.40;;;27.90;84.00;;;27.89;58.17;98241.75;4939013;29;20488;-71
2023/08/22 08:22:11;;;;;;;16.57;14.97;;;27.90;82.80;;;28.13;58.58;98248.78;4943444;28;20472;-71
2023/08/22 08:24:39;;;;;;;13.37;12.03;;;28.10;82.90;;;28.17;58.59;98249.81;4937314;29;20486;-71
2023/08/22 08:27:06;;;;;;;14.90;13.37;;;28.10;82.90;;;28.20;58.40;98249.16;4936997;28;20454;-71
2023/08/22 08:29:33;;;;;;;12.57;11.47;;;28.20;82.90;;;27.94;57.40;98246.34;4935360;29;20458;-72
2023/08/22 08:32:02;;;;;;;14.13;11.80;;;27.90;81.90;;;27.88;58.30;98237.34;4934480;29;20459;-72
2023/08/22 08:34:29;;;;;;;12.80;11.70;;;27.90;82.20;;;27.82;58.96;98233.09;4943736;29;20454;-71
2023/08/22 08:36:57;;;;;;;15.00;11.27;;;27.80;82.70;;;27.82;57.53;98244.19;4939022;29;20469;-71
2023/08/22 08:39:24;;;;;;;11.50;10.30;;;27.90;81.30;;;27.99;57.60;98249.78;4942279;28;20503;-71
2023/08/22 08:42:03;;;;;;;11.17;10.17;;;27.90;81.50;;;27.62;57.20;98240.91;4942697;29;20465;-71
2023/08/22 08:44:34;;;;;;;12.47;11.30;;;27.80;80.90;;;27.69;57.59;98244.03;4949369;29;20483;-71
2023/08/22 08:47:03;;;;;;;7.87;7.17;;;27.60;81.30;;;27.90;55.61;98240.63;4943407;29;20450;-71
2023/08/22 08:49:33;;;;;;;9.43;8.57;;;27.80;80.00;;;28.20;54.91;98238.03;4942167;28;20513;-70
2023/08/22 08:52:03;;;;;;;9.70;7.60;;;28.10;79.80;;;28.05;54.73;98230.19;4940768;29;20542;-70
2023/08/22 08:54:30;;;;;;;8.43;7.70;;;28.10;78.80;;;28.18;53.97;98240.34;4949130;29;20458;-71
2023/08/22 08:56:59;;;;;;;9.20;8.30;;;28.20;78.60;;;28.25;54.72;98240.63;4947411;28;20466;-71
2023/08/22 08:59:27;;;;;;;8.50;7.57;;;28.20;78.90;;;27.96;53.59;98186.56;4964937;28;20465;-71
2023/08/22 09:01:55;;;;;;;9.53;7.83;;;28.30;78.30;;;28.50;53.43;98243.72;4934122;29;20478;-71
2023/08/22 09:04:24;;;;;;;8.23;7.53;;;28.40;78.10;;;28.73;53.13;98242.69;4942813;29;20533;-71
2023/08/22 09:06:51;;;;;;;11.03;8.77;;;28.60;77.80;;;28.88;52.52;98244.16;4956008;28;20450;-70
2023/08/22 09:09:18;;;;;;;8.57;7.70;;;28.80;77.20;;;28.76;51.88;98237.31;4957800;28;20451;-71
2023/08/22 09:11:47;;;;;;;8.43;7.63;;;28.80;76.60;;;28.85;52.26;98234.53;4948804;29;20489;-71
2023/08/22 09:14:20;;;;;;;7.67;6.97;;;28.80;76.80;;;28.90;52.31;98244.66;4934895;29;20523;-72
2023/08/22 09:16:47;;;;;;;7.93;7.23;;;28.90;76.60;;;29.08;51.42;98232.31;4934702;29;20655;-71
2023/08/22 09:19:14;;;;;;;7.90;7.13;;;29.00;75.90;;;29.00;51.71;98232.34;4942669;29;20541;-71
2023/08/22 09:21:58;;;;;;;8.37;7.33;;;29.00;75.60;;;29.43;50.75;98230.53;4935189;29;20473;-71
2023/08/22 09:24:26;;;;;;;8.90;6.70;;;29.20;75.40;;;29.48;50.49;98224.75;4938315;28;20495;-71
2023/08/22 09:26:54;;;;;;;8.53;7.23;;;29.40;74.90;;;29.63;49.52;98224.19;4935928;29;20490;-71
2023/08/22 09:29:29;;;;;;;7.17;6.57;;;29.50;74.20;;;29.59;48.38;98219.66;4945544;28;20461;-71
2023/08/22 09:32:04;;;;;;;8.30;7.50;;;29.60;72.90;;;29.37;49.82;98216.78;4952355;28;21002;-71
2023/08/22 09:34:33;;;;;;;7.83;7.13;;;29.40;73.30;;;29.29;48.74;98220.44;4954019;28;20465;-71
2023/08/22 09:37:01;;;;;;;6.30;5.83;;;29.40;72.70;;;29.02;49.15;98164.13;4953763;29;20450;-70
2023/08/22 09:39:30;;;;;;;6.40;5.93;;;29.40;72.60;;;29.23;48.25;98227.34;4952180;28;20646;-69
2023/08/22 09:41:59;;;;;;;7.30;6.37;;;29.30;71.30;;;29.35;47.69;98221.88;4935925;29;20983;-72
2023/08/22 09:44:27;;;;;;;7.00;6.40;;;29.40;71.10;;;29.58;46.20;98224.38;4937640;29;20492;-72
2023/08/22 09:46:57;;;;;;;6.70;6.10;;;29.50;70.10;;;29.43;47.31;98222.19;4934588;29;20454;-72
2023/08/22 09:49:24;;;;;;;6.13;5.67;;;29.40;70.30;;;29.80;46.81;98212.13;4953570;28;20450;-70
2023/08/22 09:51:53;;;;;;;6.80;6.20;;;29.70;70.10;;;29.35;46.49;98194.06;4942914;29;20467;-72
2023/08/22 09:54:23;;;;;;;5.93;5.53;;;29.60;69.60;;;29.36;48.18;98200.44;4933103;29;20459;-70
2023/08/22 09:56:51;;;;;;;6.37;5.87;;;29.40;70.80;;;29.55;47.93;98208.38;4934440;29;20454;-71
2023/08/22 09:59:21;;;;;;;7.10;6.50;;;29.60;70.50;;;29.26;47.79;98210.78;4934262;29;20469;-72
2023/08/22 10:01:49;;;;;;;5.73;5.23;;;29.30;70.30;;;29.41;47.04;98206.63;4935439;29;20570;-71
2023/08/22 10:04:18;;;;;;;5.37;4.87;;;29.40;69.70;;;29.55;45.61;98206.38;4944545;29;20481;-70
2023/08/22 10:06:48;;;;;;;5.83;5.40;;;29.50;68.30;;;29.71;45.70;98196.63;4937958;28;20451;-71
2023/08/22 10:09:16;;;;;;;5.53;5.07;;;29.70;68.30;;;29.67;47.08;98207.63;4933606;29;20554;-70
2023/08/22 10:11:50;;;;;;;5.90;5.37;;;29.70;69.70;;;29.73;46.61;98208.25;4933079;29;20490;-72
2023/08/22 10:14:24;;;;;;;7.80;5.93;;;29.70;69.00;;;29.67;46.06;98207.63;4933909;29;20483;-71